Dubuque (DBQ/KDBQ)

Map

Destinations

Information

Location
Dubuque, Iowa
Local Time
14:45 / 2:45 pm
GMT Time
19:45 / 7:45 pm
Gates
Ramp
No FAA reported delays
METAR KDBQ 281853Z 04009KT 10SM -RA OVC065 06/03 A2989 RMK AO2 RAB1754 SLP129 P0001 T00610028
TAF KDBQ 281732Z 2818/2918 06010KT 6SM -RA BR SCT025 OVC035 TEMPO 2819/2821 5SM -RA BR BKN025 FM282200 04010KT 6SM -RA BR OVC030 FM290100 04013KT 6SM -RA BR OVC016 FM290700 03013KT 6SM BR OVC011 FM291300 04016G21KT P6SM OVC011